createdAt,value
2019-05-30T00:01:40.075Z,0.57
2019-05-30T00:04:08.632Z,0.50
2019-05-30T00:06:36.975Z,0.50
2019-05-30T00:09:08.662Z,0.73
2019-05-30T00:11:37.087Z,0.50
2019-05-30T00:14:05.361Z,0.50
2019-05-30T00:16:33.829Z,0.70
2019-05-30T00:19:02.919Z,0.50
2019-05-30T00:21:31.384Z,0.60
2019-05-30T00:23:59.985Z,0.90
2019-05-30T00:26:28.444Z,0.50
2019-05-30T00:28:56.729Z,0.57
2019-05-30T00:31:25.036Z,0.50
2019-05-30T00:33:53.407Z,0.43
2019-05-30T00:36:21.893Z,0.60
2019-05-30T00:38:50.371Z,0.60
2019-05-30T00:41:18.749Z,0.60
2019-05-30T00:43:47.065Z,0.60
2019-05-30T00:46:15.346Z,0.87
2019-05-30T00:48:43.652Z,0.60
2019-05-30T00:51:11.952Z,0.67
2019-05-30T00:53:40.473Z,0.43
2019-05-30T00:56:08.825Z,0.77
2019-05-30T00:58:37.409Z,0.57
2019-05-30T01:01:06.998Z,0.77
2019-05-30T01:03:35.903Z,0.83
2019-05-30T01:06:05.003Z,0.47
2019-05-30T01:08:33.378Z,0.63
2019-05-30T01:11:03.076Z,0.60
2019-05-30T01:13:31.464Z,0.70
2019-05-30T01:16:00.976Z,0.80
2019-05-30T01:18:29.337Z,0.73
2019-05-30T01:20:57.615Z,1.23
2019-05-30T01:23:26.022Z,0.93
2019-05-30T01:25:55.114Z,0.60
2019-05-30T01:28:23.597Z,0.70
2019-05-30T01:31:00.289Z,0.80
2019-05-30T01:33:21.965Z,1.00
2019-05-30T01:35:50.300Z,0.83
2019-05-30T01:38:18.573Z,1.10
2019-05-30T01:40:46.871Z,0.77
2019-05-30T01:43:15.289Z,0.93
2019-05-30T01:45:43.609Z,0.80
2019-05-30T01:48:11.889Z,1.33
2019-05-30T01:50:40.334Z,1.40
2019-05-30T01:53:08.853Z,1.13
2019-05-30T01:55:37.390Z,1.20
2019-05-30T01:58:07.100Z,1.10
2019-05-30T02:00:39.820Z,1.10
2019-05-30T02:03:09.478Z,0.90
2019-05-30T02:05:38.386Z,1.00
2019-05-30T02:08:07.265Z,1.10
2019-05-30T02:10:35.806Z,1.27
2019-05-30T02:13:05.459Z,1.20
2019-05-30T02:15:33.958Z,1.13
2019-05-30T02:18:03.454Z,1.50
2019-05-30T02:20:31.825Z,1.30
2019-05-30T02:23:00.122Z,2.20
2019-05-30T02:25:29.010Z,1.47
2019-05-30T02:27:57.292Z,1.27
2019-05-30T02:30:25.583Z,1.40
2019-05-30T02:32:53.969Z,1.43
2019-05-30T02:35:23.292Z,1.73
2019-05-30T02:37:51.565Z,1.50
2019-05-30T02:40:19.953Z,1.70
2019-05-30T02:42:48.212Z,1.80
2019-05-30T02:45:16.556Z,1.90
2019-05-30T02:47:45.419Z,1.40
2019-05-30T02:50:14.333Z,2.27
2019-05-30T02:52:42.842Z,1.97
2019-05-30T02:55:13.345Z,1.73
2019-05-30T02:57:41.238Z,1.83
2019-05-30T03:00:13.917Z,1.83
2019-05-30T03:02:39.724Z,2.37
2019-05-30T03:05:10.962Z,2.33
2019-05-30T03:07:38.019Z,1.70
2019-05-30T03:10:07.654Z,2.67
2019-05-30T03:12:36.851Z,2.20
2019-05-30T03:15:11.640Z,2.10
2019-05-30T03:17:38.363Z,3.53
2019-05-30T03:20:14.954Z,2.20
2019-05-30T03:22:36.888Z,3.40
2019-05-30T03:25:07.911Z,3.10
2019-05-30T03:27:36.522Z,2.43
2019-05-30T03:30:12.957Z,2.67
2019-05-30T03:33:03.871Z,2.77
2019-05-30T03:35:15.046Z,2.40
2019-05-30T03:37:37.135Z,2.97
2019-05-30T03:40:06.597Z,2.80
2019-05-30T03:42:34.928Z,2.77
2019-05-30T03:45:06.265Z,2.60
2019-05-30T03:47:34.391Z,2.40
2019-05-30T03:50:04.582Z,2.90
2019-05-30T03:52:32.733Z,2.90
2019-05-30T03:55:01.067Z,3.23
2019-05-30T03:57:44.686Z,3.03
2019-05-30T04:00:30.914Z,3.10
2019-05-30T04:03:10.813Z,3.40
2019-05-30T04:05:50.445Z,3.13
2019-05-30T04:08:19.675Z,3.50
2019-05-30T04:10:49.044Z,3.20
2019-05-30T04:13:26.751Z,4.00
2019-05-30T04:15:54.986Z,3.80
2019-05-30T04:18:23.270Z,4.10
2019-05-30T04:20:51.572Z,4.10
2019-05-30T04:23:20.023Z,4.07
2019-05-30T04:25:48.302Z,3.60
2019-05-30T04:28:18.517Z,3.50
2019-05-30T04:30:46.694Z,4.73
2019-05-30T04:33:25.782Z,3.50
2019-05-30T04:35:45.286Z,4.60
2019-05-30T04:38:14.665Z,4.20
2019-05-30T04:40:43.513Z,4.67
2019-05-30T04:43:13.105Z,4.50
2019-05-30T04:45:42.537Z,4.70
2019-05-30T04:48:11.688Z,4.77
2019-05-30T04:50:40.196Z,4.30
2019-05-30T04:53:10.166Z,5.00
2019-05-30T04:55:38.689Z,4.37
2019-05-30T04:58:06.983Z,4.50
2019-05-30T05:00:35.431Z,3.50
2019-05-30T05:03:05.484Z,4.17
2019-05-30T05:05:33.786Z,4.60
2019-05-30T05:08:02.108Z,3.90
2019-05-30T05:10:30.532Z,4.50
2019-05-30T05:12:58.816Z,4.27
2019-05-30T05:15:27.088Z,3.97
2019-05-30T05:17:55.392Z,3.43
2019-05-30T05:20:23.713Z,4.50
2019-05-30T05:22:52.088Z,4.13
2019-05-30T05:25:21.469Z,4.20
2019-05-30T05:27:49.951Z,4.67
2019-05-30T05:30:18.358Z,3.90
2019-05-30T05:32:46.685Z,4.27
2019-05-30T05:35:16.795Z,3.40
2019-05-30T05:37:45.249Z,4.90
2019-05-30T05:40:14.040Z,4.57
2019-05-30T05:42:42.384Z,4.97
2019-05-30T05:45:11.773Z,4.50
2019-05-30T05:47:40.369Z,5.00
2019-05-30T05:50:08.738Z,4.50
2019-05-30T05:52:37.045Z,5.00
2019-05-30T05:55:06.022Z,4.50
2019-05-30T05:57:34.532Z,4.50
2019-05-30T06:00:03.084Z,4.07
2019-05-30T06:02:31.370Z,4.63
2019-05-30T06:05:00.250Z,5.80
2019-05-30T06:07:28.671Z,4.60
2019-05-30T06:09:57.058Z,4.60
2019-05-30T06:12:25.788Z,4.10
2019-05-30T06:14:54.060Z,4.60
2019-05-30T06:17:23.091Z,4.77
2019-05-30T06:19:51.621Z,4.93
2019-05-30T06:22:19.963Z,4.30
2019-05-30T06:24:48.244Z,3.93
2019-05-30T06:27:17.709Z,4.63
2019-05-30T06:29:46.217Z,4.67
2019-05-30T06:32:14.506Z,4.17
2019-05-30T06:34:42.794Z,4.97
2019-05-30T06:37:12.154Z,4.97
2019-05-30T06:39:40.675Z,4.47
2019-05-30T06:42:08.979Z,3.77
2019-05-30T06:44:37.671Z,3.60
2019-05-30T06:47:07.335Z,3.40
2019-05-30T06:49:35.679Z,3.77
2019-05-30T06:52:04.106Z,3.37
2019-05-30T06:54:32.569Z,3.93
2019-05-30T06:57:00.849Z,4.27
2019-05-30T06:59:29.806Z,3.03
2019-05-30T07:01:58.077Z,3.70
2019-05-30T07:04:27.928Z,3.77
2019-05-30T07:06:56.834Z,2.90
2019-05-30T07:09:25.343Z,3.70
2019-05-30T07:11:53.626Z,3.60
2019-05-30T07:14:23.049Z,2.80
2019-05-30T07:16:51.498Z,3.33
2019-05-30T07:19:19.824Z,3.63
2019-05-30T07:21:48.132Z,2.90
2019-05-30T07:24:16.494Z,4.00
2019-05-30T07:26:44.987Z,3.40
2019-05-30T07:29:13.277Z,3.90
2019-05-30T07:31:41.580Z,3.23
2019-05-30T07:34:10.551Z,3.50
2019-05-30T07:36:38.924Z,3.47
2019-05-30T07:39:08.454Z,3.63
2019-05-30T07:41:37.029Z,3.57
2019-05-30T07:44:05.498Z,3.20
2019-05-30T07:46:35.066Z,4.17
2019-05-30T07:49:03.563Z,3.30
2019-05-30T07:51:32.705Z,2.83
2019-05-30T07:54:01.190Z,3.00
2019-05-30T07:56:29.516Z,3.57
2019-05-30T07:58:58.587Z,3.40
2019-05-30T08:01:26.877Z,3.60
2019-05-30T08:03:55.847Z,3.43
2019-05-30T08:06:24.280Z,3.43
2019-05-30T08:08:52.728Z,4.60
2019-05-30T08:11:21.119Z,4.23
2019-05-30T08:13:49.523Z,4.30
2019-05-30T08:16:17.843Z,4.63
2019-05-30T08:18:46.250Z,4.80
2019-05-30T08:21:14.664Z,5.17
2019-05-30T08:23:43.216Z,5.10
2019-05-30T08:26:11.592Z,4.93
2019-05-30T08:28:42.557Z,4.70
2019-05-30T08:31:10.049Z,4.40
2019-05-30T08:33:39.561Z,4.17
2019-05-30T08:36:08.150Z,3.97
2019-05-30T08:38:37.410Z,4.40
2019-05-30T08:41:05.844Z,3.50
2019-05-30T08:43:35.470Z,5.17
2019-05-30T08:46:04.042Z,4.60
2019-05-30T08:48:32.941Z,4.90
2019-05-30T08:51:02.590Z,3.83
2019-05-30T08:53:32.603Z,4.43
2019-05-30T08:56:01.289Z,4.63
2019-05-30T08:58:30.420Z,4.47
2019-05-30T09:00:58.831Z,4.47
2019-05-30T09:03:27.314Z,4.07
2019-05-30T09:06:03.378Z,3.80
2019-05-30T09:08:25.682Z,4.90
2019-05-30T09:10:54.043Z,4.40
2019-05-30T09:13:22.369Z,4.10
2019-05-30T09:15:50.671Z,4.90
2019-05-30T09:18:19.071Z,4.80
2019-05-30T09:20:47.546Z,4.90
2019-05-30T09:23:15.841Z,5.13
2019-05-30T09:25:46.873Z,4.13
2019-05-30T09:28:14.284Z,3.80
2019-05-30T09:30:43.205Z,5.30
2019-05-30T09:33:11.953Z,4.23
2019-05-30T09:35:41.386Z,5.90
2019-05-30T09:38:10.294Z,4.27
2019-05-30T09:40:39.347Z,5.20
2019-05-30T09:43:09.065Z,5.63
2019-05-30T09:45:37.370Z,4.73
2019-05-30T09:48:05.819Z,4.50
2019-05-30T09:50:34.914Z,4.77
2019-05-30T09:53:03.312Z,4.27
2019-05-30T09:55:32.601Z,4.37
2019-05-30T09:58:00.934Z,3.93
2019-05-30T10:00:30.027Z,4.50
2019-05-30T10:02:58.453Z,4.83
2019-05-30T10:05:26.971Z,4.20
2019-05-30T10:07:55.253Z,5.40
2019-05-30T10:10:23.611Z,4.30
2019-05-30T10:12:52.679Z,4.30
2019-05-30T10:15:21.371Z,4.10
2019-05-30T10:17:52.326Z,3.70
2019-05-30T10:20:19.893Z,4.37
2019-05-30T10:22:50.075Z,5.30
2019-05-30T10:25:18.371Z,4.10
2019-05-30T10:27:48.387Z,4.33
2019-05-30T10:30:16.806Z,4.83
2019-05-30T10:32:46.616Z,5.17
2019-05-30T10:35:15.177Z,4.80
2019-05-30T10:37:45.258Z,5.20
2019-05-30T10:40:13.715Z,4.53
2019-05-30T10:42:42.472Z,5.00
2019-05-30T10:45:12.789Z,5.23
2019-05-30T10:47:41.265Z,4.70
2019-05-30T10:50:09.782Z,4.97
2019-05-30T10:52:38.091Z,4.03
2019-05-30T10:55:08.867Z,5.00
2019-05-30T10:57:37.182Z,4.63
2019-05-30T11:00:11.474Z,4.70
2019-05-30T11:02:40.128Z,4.40
2019-05-30T11:05:09.038Z,4.70
2019-05-30T11:08:00.283Z,5.27
2019-05-30T11:10:22.748Z,4.73
2019-05-30T11:12:56.417Z,4.10
2019-05-30T11:15:21.118Z,4.60
2019-05-30T11:17:51.524Z,3.90
2019-05-30T11:20:19.566Z,4.90
2019-05-30T11:22:47.933Z,5.10
2019-05-30T11:25:16.338Z,4.20
2019-05-30T11:27:44.630Z,5.10
2019-05-30T11:30:14.436Z,4.60
2019-05-30T11:32:43.639Z,4.10
2019-05-30T11:35:11.919Z,3.73
2019-05-30T11:37:40.392Z,4.93
2019-05-30T11:40:08.815Z,4.57
2019-05-30T11:42:37.095Z,4.57
2019-05-30T11:45:08.483Z,5.07
2019-05-30T11:47:36.786Z,6.20
2019-05-30T11:50:08.326Z,4.60
2019-05-30T11:52:36.616Z,5.00
2019-05-30T11:55:08.157Z,4.23
2019-05-30T11:57:36.497Z,5.53
2019-05-30T12:00:06.951Z,4.67
2019-05-30T12:02:35.298Z,5.43
2019-05-30T12:05:03.600Z,5.37
2019-05-30T12:07:36.318Z,5.20
2019-05-30T12:10:02.167Z,4.77
2019-05-30T12:12:30.501Z,4.70
2019-05-30T12:14:59.474Z,5.23
2019-05-30T12:17:27.827Z,4.83
2019-05-30T12:19:57.529Z,5.93
2019-05-30T12:22:26.008Z,4.83
2019-05-30T12:24:54.420Z,5.63
2019-05-30T12:27:22.724Z,5.90
2019-05-30T12:29:52.061Z,4.43
2019-05-30T12:32:20.587Z,4.63
2019-05-30T12:34:48.875Z,4.80
2019-05-30T12:37:17.172Z,4.70
2019-05-30T12:39:45.539Z,4.80
2019-05-30T12:42:13.907Z,4.67
2019-05-30T12:44:42.222Z,5.37
2019-05-30T12:47:10.547Z,5.00
2019-05-30T12:49:38.961Z,5.80
2019-05-30T12:52:07.328Z,6.30
2019-05-30T12:54:35.613Z,5.40
2019-05-30T12:57:04.029Z,5.57
2019-05-30T12:59:32.364Z,5.23
2019-05-30T13:02:01.199Z,4.37
2019-05-30T13:04:29.686Z,5.90
2019-05-30T13:06:59.358Z,5.50
2019-05-30T13:09:27.929Z,5.50
2019-05-30T13:11:56.438Z,4.97
2019-05-30T13:14:24.733Z,4.93
2019-05-30T13:16:53.073Z,4.63
2019-05-30T13:19:21.381Z,5.23
2019-05-30T13:21:49.660Z,5.00
2019-05-30T13:24:18.010Z,4.47
2019-05-30T13:26:46.382Z,5.40
2019-05-30T13:29:14.664Z,4.90
2019-05-30T13:31:43.081Z,6.17
2019-05-30T13:34:12.446Z,4.93
2019-05-30T13:36:39.915Z,5.83
2019-05-30T13:39:08.614Z,4.90
2019-05-30T13:41:36.896Z,4.37
2019-05-30T13:44:08.001Z,4.33
2019-05-30T13:46:35.232Z,5.17
2019-05-30T13:49:04.755Z,4.70
2019-05-30T13:51:33.224Z,4.77
2019-05-30T13:54:01.523Z,4.50
2019-05-30T13:56:30.312Z,5.03
2019-05-30T13:58:59.660Z,4.33
2019-05-30T14:01:28.200Z,3.83
2019-05-30T14:03:56.886Z,4.10
2019-05-30T14:06:25.168Z,5.20
2019-05-30T14:08:53.454Z,4.30
2019-05-30T14:11:21.749Z,4.03
2019-05-30T14:13:50.026Z,3.90
2019-05-30T14:16:18.447Z,4.00
2019-05-30T14:18:46.850Z,4.27
2019-05-30T14:21:15.205Z,4.87
2019-05-30T14:23:43.817Z,4.20
2019-05-30T14:26:12.118Z,4.80
2019-05-30T14:28:40.442Z,5.43
2019-05-30T14:31:08.990Z,5.93
2019-05-30T14:33:37.316Z,5.70
2019-05-30T14:36:08.310Z,6.77
2019-05-30T14:38:35.732Z,5.57
2019-05-30T14:41:04.831Z,5.37
2019-05-30T14:43:33.310Z,5.97
2019-05-30T14:46:02.421Z,4.93
2019-05-30T14:48:30.782Z,5.73
2019-05-30T14:50:59.164Z,5.27
2019-05-30T14:53:27.575Z,5.57
2019-05-30T14:55:56.053Z,4.83
2019-05-30T14:58:24.334Z,5.20
2019-05-30T15:00:52.779Z,4.83
2019-05-30T15:03:21.094Z,5.10
2019-05-30T15:05:49.435Z,4.93
2019-05-30T15:08:17.833Z,5.20
2019-05-30T15:10:46.200Z,6.97
2019-05-30T15:13:15.726Z,6.50
2019-05-30T15:15:44.204Z,5.80
2019-05-30T15:18:13.274Z,5.60
2019-05-30T15:20:41.629Z,5.97
2019-05-30T15:23:09.898Z,5.90
2019-05-30T15:25:39.073Z,5.67
2019-05-30T15:28:07.964Z,6.13
2019-05-30T15:30:36.511Z,5.80
2019-05-30T15:33:06.221Z,6.07
2019-05-30T15:35:34.694Z,6.37
2019-05-30T15:38:02.968Z,6.10
2019-05-30T15:40:31.274Z,6.13
2019-05-30T15:42:59.629Z,5.63
2019-05-30T15:45:27.947Z,5.40
2019-05-30T15:47:56.707Z,4.53
2019-05-30T15:50:25.108Z,5.70
2019-05-30T15:52:53.391Z,5.87
2019-05-30T15:55:23.285Z,5.07
2019-05-30T15:57:51.716Z,5.10
2019-05-30T16:00:20.073Z,4.93
2019-05-30T16:02:48.446Z,5.13
2019-05-30T16:05:17.033Z,5.17
2019-05-30T16:07:45.320Z,5.20
2019-05-30T16:10:15.234Z,4.80
2019-05-30T16:12:43.530Z,4.70
2019-05-30T16:15:11.961Z,6.13
2019-05-30T16:17:40.640Z,4.60
2019-05-30T16:20:09.869Z,5.00
2019-05-30T16:22:38.158Z,5.63
2019-05-30T16:25:06.645Z,5.83
2019-05-30T16:27:34.910Z,6.57
2019-05-30T16:30:03.854Z,5.70
2019-05-30T16:32:32.207Z,5.07
2019-05-30T16:35:00.517Z,6.37
2019-05-30T16:37:28.894Z,4.83
2019-05-30T16:40:06.066Z,4.40
2019-05-30T16:42:27.328Z,4.60
2019-05-30T16:44:55.669Z,5.53
2019-05-30T16:47:24.174Z,5.87
2019-05-30T16:49:52.455Z,5.47
2019-05-30T16:52:21.083Z,5.03
2019-05-30T16:54:49.305Z,5.87
2019-05-30T16:57:18.565Z,5.43
2019-05-30T16:59:46.993Z,5.33
2019-05-30T17:02:16.776Z,4.97
2019-05-30T17:04:45.261Z,5.30
2019-05-30T17:07:13.563Z,4.27
2019-05-30T17:09:41.917Z,4.67
2019-05-30T17:12:10.224Z,4.47
2019-05-30T17:14:38.507Z,4.93
2019-05-30T17:17:06.849Z,4.97
2019-05-30T17:19:35.192Z,5.40
2019-05-30T17:22:03.492Z,5.37
2019-05-30T17:24:31.927Z,4.27
2019-05-30T17:27:00.373Z,4.27
2019-05-30T17:29:28.686Z,5.27
2019-05-30T17:31:56.976Z,4.37
2019-05-30T17:34:26.063Z,5.33
2019-05-30T17:36:54.403Z,5.47
2019-05-30T17:39:22.761Z,4.97
2019-05-30T17:41:51.196Z,5.93
2019-05-30T17:44:19.474Z,6.70
2019-05-30T17:46:47.801Z,5.00
2019-05-30T17:49:17.428Z,6.40
2019-05-30T17:51:45.812Z,5.57
2019-05-30T17:54:14.213Z,4.57
2019-05-30T17:56:42.494Z,5.97
2019-05-30T17:59:10.836Z,5.03
2019-05-30T18:01:39.230Z,5.00
2019-05-30T18:04:07.492Z,5.60
2019-05-30T18:06:35.895Z,4.97
2019-05-30T18:09:06.089Z,5.00
2019-05-30T18:11:34.584Z,5.70
2019-05-30T18:14:04.036Z,4.60
2019-05-30T18:16:33.839Z,4.73
2019-05-30T18:19:03.566Z,5.20
2019-05-30T18:21:32.009Z,5.67
2019-05-30T18:24:00.362Z,5.70
2019-05-30T18:26:29.723Z,4.93
2019-05-30T18:28:58.051Z,6.00
2019-05-30T18:31:26.325Z,5.23
2019-05-30T18:33:54.610Z,4.63
2019-05-30T18:36:24.252Z,5.30
2019-05-30T18:38:52.821Z,6.33
2019-05-30T18:41:21.163Z,5.70
2019-05-30T18:43:49.601Z,5.73
2019-05-30T18:46:17.882Z,5.37
2019-05-30T18:48:46.192Z,6.30
2019-05-30T18:51:15.564Z,4.60
2019-05-30T18:53:44.711Z,5.13
2019-05-30T18:56:13.040Z,4.30
2019-05-30T18:58:41.333Z,3.10
2019-05-30T19:01:09.621Z,3.00
2019-05-30T19:03:37.929Z,3.17
2019-05-30T19:06:06.205Z,3.00
2019-05-30T19:08:34.626Z,3.10
2019-05-30T19:11:02.915Z,3.37
2019-05-30T19:13:31.303Z,3.80
2019-05-30T19:16:04.817Z,2.80
2019-05-30T19:18:33.634Z,3.50
2019-05-30T19:21:01.996Z,3.73
2019-05-30T19:23:30.513Z,3.60
2019-05-30T19:25:58.865Z,3.90
2019-05-30T19:28:28.438Z,3.70
2019-05-30T19:30:56.933Z,3.10
2019-05-30T19:33:26.610Z,2.93
2019-05-30T19:35:54.997Z,4.27
2019-05-30T19:38:23.315Z,4.17
2019-05-30T19:40:51.624Z,3.97
2019-05-30T19:43:19.917Z,3.83
2019-05-30T19:45:48.221Z,3.80
2019-05-30T19:48:16.570Z,2.93
2019-05-30T19:50:45.017Z,4.60
2019-05-30T19:53:13.431Z,3.33
2019-05-30T19:55:41.768Z,3.87
2019-05-30T19:58:10.259Z,3.00
2019-05-30T20:00:57.037Z,2.67
2019-05-30T20:03:09.453Z,4.13
2019-05-30T20:05:38.898Z,4.00
2019-05-30T20:08:07.615Z,3.40
2019-05-30T20:10:37.184Z,3.77
2019-05-30T20:13:07.006Z,3.53
2019-05-30T20:15:35.500Z,3.77
2019-05-30T20:18:03.810Z,3.53
2019-05-30T20:20:49.332Z,2.90
2019-05-30T20:23:03.644Z,2.93
2019-05-30T20:25:32.610Z,2.90
2019-05-30T20:28:01.223Z,2.97
2019-05-30T20:30:29.643Z,3.17
2019-05-30T20:32:58.003Z,2.50
2019-05-30T20:35:26.288Z,3.20
2019-05-30T20:37:54.702Z,2.93
2019-05-30T20:40:23.557Z,2.97
2019-05-30T20:42:52.031Z,2.30
2019-05-30T20:45:20.548Z,1.93
2019-05-30T20:47:48.833Z,2.30
2019-05-30T20:50:17.269Z,2.10
2019-05-30T20:52:45.935Z,2.90
2019-05-30T20:55:14.234Z,2.20
2019-05-30T20:57:42.674Z,2.67
2019-05-30T21:00:11.931Z,2.20
2019-05-30T21:02:40.888Z,2.60
2019-05-30T21:05:10.245Z,1.97
2019-05-30T21:07:39.778Z,1.90
2019-05-30T21:10:08.508Z,2.33
2019-05-30T21:12:41.294Z,2.03
2019-05-30T21:15:07.690Z,2.17
2019-05-30T21:17:35.990Z,2.50
2019-05-30T21:20:06.057Z,2.50
2019-05-30T21:22:34.335Z,2.40
2019-05-30T21:25:02.623Z,2.60
2019-05-30T21:27:31.032Z,2.77
2019-05-30T21:29:59.437Z,2.80
2019-05-30T21:32:27.966Z,2.90
2019-05-30T21:34:56.472Z,4.20
2019-05-30T21:37:25.183Z,3.17
2019-05-30T21:39:53.598Z,3.40
2019-05-30T21:42:21.890Z,4.03
2019-05-30T21:44:52.629Z,4.17
2019-05-30T21:47:20.397Z,4.90
2019-05-30T21:49:49.239Z,4.77
2019-05-30T21:52:17.709Z,3.63
2019-05-30T21:54:46.298Z,4.47
2019-05-30T21:57:14.706Z,4.73
2019-05-30T21:59:44.081Z,4.00
2019-05-30T22:02:12.625Z,4.23
2019-05-30T22:04:40.968Z,3.87
2019-05-30T22:07:09.252Z,2.90
2019-05-30T22:09:37.668Z,3.67
2019-05-30T22:12:05.955Z,2.53
2019-05-30T22:14:34.254Z,2.80
2019-05-30T22:17:02.668Z,3.47
2019-05-30T22:19:31.081Z,3.20
2019-05-30T22:21:59.391Z,2.03
2019-05-30T22:24:27.679Z,2.80
2019-05-30T22:26:55.982Z,3.33
2019-05-30T22:29:24.267Z,3.30
2019-05-30T22:31:53.532Z,3.03
2019-05-30T22:34:22.042Z,3.13
2019-05-30T22:36:50.996Z,3.20
2019-05-30T22:39:19.402Z,3.23
2019-05-30T22:41:48.004Z,2.70
2019-05-30T22:44:16.470Z,2.70
2019-05-30T22:46:46.113Z,2.57
2019-05-30T22:49:14.536Z,2.80
2019-05-30T22:51:42.876Z,2.50
2019-05-30T22:54:11.176Z,2.87
2019-05-30T22:56:39.564Z,2.43
2019-05-30T22:59:07.870Z,3.27
2019-05-30T23:01:36.288Z,2.77
2019-05-30T23:04:04.595Z,2.70
2019-05-30T23:06:32.877Z,3.10
2019-05-30T23:09:01.284Z,2.47
2019-05-30T23:11:29.730Z,3.17
2019-05-30T23:13:58.041Z,2.50
2019-05-30T23:16:26.324Z,2.90
2019-05-30T23:18:54.798Z,2.50
2019-05-30T23:21:23.233Z,2.63
2019-05-30T23:23:51.878Z,2.70
2019-05-30T23:26:20.656Z,3.27
2019-05-30T23:28:49.696Z,2.80
2019-05-30T23:31:18.541Z,3.50
2019-05-30T23:33:48.108Z,2.90
2019-05-30T23:36:17.191Z,3.07
2019-05-30T23:38:45.595Z,2.90
2019-05-30T23:41:14.037Z,2.83
2019-05-30T23:43:55.165Z,3.13
2019-05-30T23:46:12.360Z,3.10
2019-05-30T23:48:40.677Z,2.90
2019-05-30T23:51:09.100Z,3.27
2019-05-30T23:53:37.404Z,3.30
2019-05-30T23:56:05.713Z,3.20
2019-05-30T23:58:34.057Z,3.10
